Terminal Aerodrome Forecast
Issued by NWS Pittsburgh, PA

Current Version | Previous Version | Graphics & Text | Print | Product List | Glossary On
Versions: 1 2 3 4 5 6 7 8 9 10 11 12 13 14 15 16 17 18 19 20 21 22 23 24 25 26 27 28 29 30 31
000
FTUS41 KPBZ 210300 AAA
TAFPIT
TAF AMD
KPIT 210301Z 2103/2206 21005KT 6SM -SHRA OVC035
     FM210500 22004KT 6SM BR VCSH SCT008 OVC015
      TEMPO 2108/2112 OVC008
     FM211500 28006KT P6SM -SHRA OVC025
     FM212100 29007KT P6SM -SHRA BKN035=

USA.gov is the U.S. government's official web portal to all federal, state and local government web resources and services.